sensor_id;sensor_type;location;lat;lon;timestamp;P1;durP1;ratioP1;P2;durP2;ratioP2
23101;SDS011;11720;51.214;22.574;2022-11-20T00:18:02;8.33;;;7.50;;
23101;SDS011;11720;51.214;22.574;2022-11-20T00:20:30;8.67;;;6.17;;
23101;SDS011;11720;51.214;22.574;2022-11-20T00:23:17;11.33;;;8.10;;
23101;SDS011;11720;51.214;22.574;2022-11-20T00:38:45;16.50;;;8.80;;
23101;SDS011;11720;51.214;22.574;2022-11-20T00:41:13;9.47;;;7.20;;
23101;SDS011;11720;51.214;22.574;2022-11-20T00:43:40;16.70;;;7.97;;
23101;SDS011;11720;51.214;22.574;2022-11-20T00:46:08;7.43;;;5.80;;
23101;SDS011;11720;51.214;22.574;2022-11-20T00:48:41;5.47;;;4.93;;
23101;SDS011;11720;51.214;22.574;2022-11-20T00:51:09;7.77;;;5.67;;
23101;SDS011;11720;51.214;22.574;2022-11-20T00:53:37;10.13;;;4.83;;
23101;SDS011;11720;51.214;22.574;2022-11-20T00:56:04;28.30;;;5.73;;
23101;SDS011;11720;51.214;22.574;2022-11-20T01:01:35;14.73;;;6.47;;
23101;SDS011;11720;51.214;22.574;2022-11-20T01:15:35;4.20;;;3.90;;
23101;SDS011;11720;51.214;22.574;2022-11-20T01:23:34;5.77;;;3.67;;
23101;SDS011;11720;51.214;22.574;2022-11-20T01:26:08;7.80;;;7.07;;
23101;SDS011;11720;51.214;22.574;2022-11-20T01:28:39;5.33;;;4.13;;
23101;SDS011;11720;51.214;22.574;2022-11-20T01:31:18;7.40;;;5.60;;
23101;SDS011;11720;51.214;22.574;2022-11-20T01:34:03;3.67;;;3.37;;
23101;SDS011;11720;51.214;22.574;2022-11-20T01:36:42;4.33;;;3.87;;
23101;SDS011;11720;51.214;22.574;2022-11-20T01:39:19;7.17;;;4.97;;
23101;SDS011;11720;51.214;22.574;2022-11-20T01:41:51;4.80;;;3.37;;
23101;SDS011;11720;51.214;22.574;2022-11-20T02:06:05;8.17;;;4.77;;
23101;SDS011;11720;51.214;22.574;2022-11-20T02:16:37;20.23;;;8.30;;
23101;SDS011;11720;51.214;22.574;2022-11-20T02:19:25;6.47;;;5.10;;
23101;SDS011;11720;51.214;22.574;2022-11-20T02:24:45;3.80;;;3.30;;
23101;SDS011;11720;51.214;22.574;2022-11-20T02:27:35;3.70;;;3.40;;
23101;SDS011;11720;51.214;22.574;2022-11-20T02:30:11;9.63;;;5.10;;
23101;SDS011;11720;51.214;22.574;2022-11-20T02:32:37;4.03;;;3.73;;
23101;SDS011;11720;51.214;22.574;2022-11-20T02:40:21;4.03;;;3.73;;
23101;SDS011;11720;51.214;22.574;2022-11-20T02:42:51;4.83;;;3.97;;
23101;SDS011;11720;51.214;22.574;2022-11-20T02:45:17;7.33;;;4.93;;
23101;SDS011;11720;51.214;22.574;2022-11-20T02:47:47;4.73;;;4.27;;
23101;SDS011;11720;51.214;22.574;2022-11-20T02:50:13;3.30;;;3.00;;
23101;SDS011;11720;51.214;22.574;2022-11-20T02:52:42;7.73;;;3.80;;
23101;SDS011;11720;51.214;22.574;2022-11-20T02:55:10;7.80;;;5.87;;
23101;SDS011;11720;51.214;22.574;2022-11-20T02:57:36;6.53;;;4.70;;
23101;SDS011;11720;51.214;22.574;2022-11-20T03:00:03;3.40;;;3.20;;
23101;SDS011;11720;51.214;22.574;2022-11-20T03:02:30;6.17;;;3.47;;
23101;SDS011;11720;51.214;22.574;2022-11-20T03:04:56;4.67;;;4.30;;
23101;SDS011;11720;51.214;22.574;2022-11-20T03:07:23;3.53;;;3.23;;
23101;SDS011;11720;51.214;22.574;2022-11-20T03:09:58;10.80;;;3.53;;
23101;SDS011;11720;51.214;22.574;2022-11-20T03:12:27;3.17;;;2.63;;
23101;SDS011;11720;51.214;22.574;2022-11-20T03:17:29;4.80;;;4.17;;
23101;SDS011;11720;51.214;22.574;2022-11-20T04:09:09;3.60;;;3.23;;
23101;SDS011;11720;51.214;22.574;2022-11-20T04:11:40;5.47;;;3.10;;
23101;SDS011;11720;51.214;22.574;2022-11-20T04:22:35;4.00;;;3.70;;
23101;SDS011;11720;51.214;22.574;2022-11-20T04:25:04;2.23;;;2.13;;
23101;SDS011;11720;51.214;22.574;2022-11-20T04:27:33;3.60;;;3.37;;
23101;SDS011;11720;51.214;22.574;2022-11-20T04:35:35;4.43;;;2.80;;
23101;SDS011;11720;51.214;22.574;2022-11-20T04:41:06;5.70;;;4.57;;
23101;SDS011;11720;51.214;22.574;2022-11-20T04:43:39;5.93;;;4.60;;
23101;SDS011;11720;51.214;22.574;2022-11-20T04:51:52;3.45;;;3.25;;
23101;SDS011;11720;51.214;22.574;2022-11-20T04:54:31;7.23;;;6.30;;
23101;SDS011;11720;51.214;22.574;2022-11-20T04:57:00;2.53;;;2.43;;
23101;SDS011;11720;51.214;22.574;2022-11-20T04:59:26;4.23;;;3.17;;
23101;SDS011;11720;51.214;22.574;2022-11-20T05:01:55;4.83;;;4.20;;
23101;SDS011;11720;51.214;22.574;2022-11-20T05:04:31;3.33;;;2.83;;
23101;SDS011;11720;51.214;22.574;2022-11-20T05:07:02;2.73;;;2.43;;
23101;SDS011;11720;51.214;22.574;2022-11-20T05:09:37;4.27;;;3.47;;
23101;SDS011;11720;51.214;22.574;2022-11-20T05:12:13;3.27;;;2.80;;
23101;SDS011;11720;51.214;22.574;2022-11-20T05:15:00;7.27;;;3.53;;
23101;SDS011;11720;51.214;22.574;2022-11-20T05:17:32;11.40;;;3.23;;
23101;SDS011;11720;51.214;22.574;2022-11-20T05:20:21;5.17;;;4.33;;
23101;SDS011;11720;51.214;22.574;2022-11-20T05:30:53;4.47;;;4.03;;
23101;SDS011;11720;51.214;22.574;2022-11-20T05:33:28;2.30;;;2.20;;
23101;SDS011;11720;51.214;22.574;2022-11-20T05:36:00;5.83;;;4.43;;
23101;SDS011;11720;51.214;22.574;2022-11-20T05:38:29;4.47;;;3.73;;
23101;SDS011;11720;51.214;22.574;2022-11-20T05:41:16;5.23;;;4.43;;
23101;SDS011;11720;51.214;22.574;2022-11-20T05:46:24;4.77;;;3.53;;
23101;SDS011;11720;51.214;22.574;2022-11-20T05:48:54;6.13;;;4.97;;
23101;SDS011;11720;51.214;22.574;2022-11-20T05:51:38;3.73;;;3.43;;
23101;SDS011;11720;51.214;22.574;2022-11-20T05:54:04;4.53;;;3.67;;
23101;SDS011;11720;51.214;22.574;2022-11-20T05:56:30;5.17;;;4.57;;
23101;SDS011;11720;51.214;22.574;2022-11-20T05:59:06;9.30;;;4.67;;
23101;SDS011;11720;51.214;22.574;2022-11-20T06:01:37;8.67;;;6.47;;
23101;SDS011;11720;51.214;22.574;2022-11-20T06:04:03;49.63;;;20.08;;
23101;SDS011;11720;51.214;22.574;2022-11-20T06:06:29;16.30;;;10.23;;
23101;SDS011;11720;51.214;22.574;2022-11-20T06:08:55;18.17;;;7.83;;
23101;SDS011;11720;51.214;22.574;2022-11-20T06:11:23;9.63;;;5.77;;
23101;SDS011;11720;51.214;22.574;2022-11-20T06:13:57;6.77;;;5.97;;
23101;SDS011;11720;51.214;22.574;2022-11-20T06:16:23;6.30;;;5.70;;
23101;SDS011;11720;51.214;22.574;2022-11-20T06:18:49;4.50;;;4.20;;
23101;SDS011;11720;51.214;22.574;2022-11-20T06:21:18;5.07;;;4.57;;
23101;SDS011;11720;51.214;22.574;2022-11-20T06:23:48;3.47;;;3.17;;
23101;SDS011;11720;51.214;22.574;2022-11-20T06:26:23;4.00;;;3.63;;
23101;SDS011;11720;51.214;22.574;2022-11-20T06:29:02;3.27;;;3.00;;
23101;SDS011;11720;51.214;22.574;2022-11-20T06:31:28;3.57;;;3.37;;
23101;SDS011;11720;51.214;22.574;2022-11-20T06:33:54;3.07;;;2.77;;
23101;SDS011;11720;51.214;22.574;2022-11-20T06:36:21;6.10;;;3.30;;
23101;SDS011;11720;51.214;22.574;2022-11-20T06:38:47;3.63;;;3.33;;
23101;SDS011;11720;51.214;22.574;2022-11-20T06:41:14;5.67;;;3.83;;
23101;SDS011;11720;51.214;22.574;2022-11-20T06:43:41;5.70;;;5.10;;
23101;SDS011;11720;51.214;22.574;2022-11-20T06:46:08;10.20;;;7.43;;
23101;SDS011;11720;51.214;22.574;2022-11-20T06:48:35;6.53;;;5.87;;
23101;SDS011;11720;51.214;22.574;2022-11-20T06:51:02;17.23;;;6.90;;
23101;SDS011;11720;51.214;22.574;2022-11-20T06:53:29;11.43;;;7.33;;
23101;SDS011;11720;51.214;22.574;2022-11-20T06:55:55;4.60;;;4.20;;
23101;SDS011;11720;51.214;22.574;2022-11-20T06:58:22;13.83;;;8.30;;
23101;SDS011;11720;51.214;22.574;2022-11-20T07:00:49;12.63;;;9.17;;
23101;SDS011;11720;51.214;22.574;2022-11-20T07:03:15;11.83;;;6.83;;
23101;SDS011;11720;51.214;22.574;2022-11-20T07:05:41;5.10;;;4.60;;
23101;SDS011;11720;51.214;22.574;2022-11-20T07:08:07;10.07;;;5.70;;
23101;SDS011;11720;51.214;22.574;2022-11-20T07:10:33;4.20;;;3.60;;
23101;SDS011;11720;51.214;22.574;2022-11-20T07:12:59;5.47;;;5.03;;
23101;SDS011;11720;51.214;22.574;2022-11-20T07:15:28;4.50;;;4.10;;
23101;SDS011;11720;51.214;22.574;2022-11-20T07:17:54;9.30;;;6.47;;
23101;SDS011;11720;51.214;22.574;2022-11-20T07:20:20;7.33;;;3.47;;
23101;SDS011;11720;51.214;22.574;2022-11-20T07:22:47;3.57;;;3.27;;
23101;SDS011;11720;51.214;22.574;2022-11-20T07:25:31;2.50;;;2.30;;
23101;SDS011;11720;51.214;22.574;2022-11-20T07:27:58;17.03;;;7.00;;
23101;SDS011;11720;51.214;22.574;2022-11-20T07:30:29;9.00;;;4.57;;
23101;SDS011;11720;51.214;22.574;2022-11-20T07:32:55;14.30;;;6.67;;
23101;SDS011;11720;51.214;22.574;2022-11-20T07:35:26;21.53;;;5.57;;
23101;SDS011;11720;51.214;22.574;2022-11-20T07:37:54;14.55;;;7.90;;
23101;SDS011;11720;51.214;22.574;2022-11-20T07:40:20;19.50;;;6.50;;
23101;SDS011;11720;51.214;22.574;2022-11-20T07:42:53;12.10;;;6.27;;
23101;SDS011;11720;51.214;22.574;2022-11-20T07:45:22;31.50;;;8.80;;
23101;SDS011;11720;51.214;22.574;2022-11-20T07:47:49;6.50;;;4.57;;
23101;SDS011;11720;51.214;22.574;2022-11-20T07:50:20;3.43;;;3.13;;
23101;SDS011;11720;51.214;22.574;2022-11-20T07:52:46;6.33;;;2.90;;
23101;SDS011;11720;51.214;22.574;2022-11-20T07:55:12;3.47;;;3.27;;
23101;SDS011;11720;51.214;22.574;2022-11-20T07:57:38;2.43;;;2.27;;
23101;SDS011;11720;51.214;22.574;2022-11-20T08:00:05;3.17;;;2.97;;
23101;SDS011;11720;51.214;22.574;2022-11-20T08:02:36;7.40;;;4.03;;
23101;SDS011;11720;51.214;22.574;2022-11-20T08:05:04;14.73;;;4.50;;
23101;SDS011;11720;51.214;22.574;2022-11-20T08:07:34;3.13;;;2.93;;
23101;SDS011;11720;51.214;22.574;2022-11-20T08:10:04;5.30;;;3.37;;
23101;SDS011;11720;51.214;22.574;2022-11-20T08:12:30;4.30;;;3.37;;
23101;SDS011;11720;51.214;22.574;2022-11-20T08:15:15;3.23;;;3.10;;
23101;SDS011;11720;51.214;22.574;2022-11-20T08:17:41;4.17;;;3.80;;
23101;SDS011;11720;51.214;22.574;2022-11-20T08:20:10;4.17;;;3.73;;
23101;SDS011;11720;51.214;22.574;2022-11-20T08:22:43;8.10;;;4.20;;
23101;SDS011;11720;51.214;22.574;2022-11-20T08:25:09;15.23;;;6.10;;
23101;SDS011;11720;51.214;22.574;2022-11-20T08:27:35;3.77;;;3.20;;
23101;SDS011;11720;51.214;22.574;2022-11-20T08:30:03;4.03;;;2.97;;
23101;SDS011;11720;51.214;22.574;2022-11-20T08:32:29;3.93;;;3.20;;
23101;SDS011;11720;51.214;22.574;2022-11-20T08:34:55;5.00;;;3.73;;
23101;SDS011;11720;51.214;22.574;2022-11-20T08:37:21;11.70;;;5.20;;
23101;SDS011;11720;51.214;22.574;2022-11-20T08:39:47;6.87;;;4.73;;
23101;SDS011;11720;51.214;22.574;2022-11-20T08:42:13;4.00;;;3.67;;
23101;SDS011;11720;51.214;22.574;2022-11-20T08:44:52;10.80;;;7.37;;
23101;SDS011;11720;51.214;22.574;2022-11-20T08:50:13;5.30;;;4.40;;
23101;SDS011;11720;51.214;22.574;2022-11-20T08:52:45;25.60;;;9.23;;
23101;SDS011;11720;51.214;22.574;2022-11-20T08:55:16;14.80;;;9.73;;
23101;SDS011;11720;51.214;22.574;2022-11-20T08:57:52;17.90;;;9.57;;
23101;SDS011;11720;51.214;22.574;2022-11-20T09:00:25;16.17;;;7.63;;
23101;SDS011;11720;51.214;22.574;2022-11-20T09:03:04;11.97;;;5.80;;
23101;SDS011;11720;51.214;22.574;2022-11-20T09:05:30;5.50;;;5.07;;
23101;SDS011;11720;51.214;22.574;2022-11-20T09:08:03;6.93;;;4.60;;
23101;SDS011;11720;51.214;22.574;2022-11-20T09:13:52;3.13;;;2.83;;
23101;SDS011;11720;51.214;22.574;2022-11-20T09:19:44;5.63;;;5.13;;
23101;SDS011;11720;51.214;22.574;2022-11-20T09:22:10;6.17;;;5.57;;
23101;SDS011;11720;51.214;22.574;2022-11-20T09:24:36;7.40;;;5.63;;
23101;SDS011;11720;51.214;22.574;2022-11-20T09:27:04;6.07;;;3.70;;
23101;SDS011;11720;51.214;22.574;2022-11-20T09:29:32;5.07;;;2.83;;
23101;SDS011;11720;51.214;22.574;2022-11-20T09:37:19;3.20;;;2.90;;
23101;SDS011;11720;51.214;22.574;2022-11-20T09:43:15;18.30;;;4.33;;
23101;SDS011;11720;51.214;22.574;2022-11-20T10:05:31;2.87;;;2.63;;
23101;SDS011;11720;51.214;22.574;2022-11-20T10:42:02;5.03;;;4.67;;
23101;SDS011;11720;51.214;22.574;2022-11-20T11:14:24;3.53;;;3.30;;
23101;SDS011;11720;51.214;22.574;2022-11-20T11:17:00;6.17;;;2.33;;
23101;SDS011;11720;51.214;22.574;2022-11-20T11:19:31;10.37;;;4.90;;
23101;SDS011;11720;51.214;22.574;2022-11-20T11:22:16;4.93;;;4.10;;
23101;SDS011;11720;51.214;22.574;2022-11-20T11:30:58;6.53;;;5.03;;
23101;SDS011;11720;51.214;22.574;2022-11-20T11:33:49;14.20;;;4.67;;
23101;SDS011;11720;51.214;22.574;2022-11-20T11:39:57;8.13;;;5.70;;
23101;SDS011;11720;51.214;22.574;2022-11-20T11:42:52;6.93;;;4.60;;
23101;SDS011;11720;51.214;22.574;2022-11-20T11:49:35;5.80;;;4.63;;
23101;SDS011;11720;51.214;22.574;2022-11-20T11:55:00;6.83;;;5.07;;
23101;SDS011;11720;51.214;22.574;2022-11-20T12:04:44;11.10;;;4.20;;
23101;SDS011;11720;51.214;22.574;2022-11-20T12:10:43;6.33;;;4.63;;
23101;SDS011;11720;51.214;22.574;2022-11-20T12:16:19;14.57;;;6.50;;
23101;SDS011;11720;51.214;22.574;2022-11-20T12:31:05;5.00;;;4.27;;
23101;SDS011;11720;51.214;22.574;2022-11-20T12:34:26;10.57;;;4.90;;
23101;SDS011;11720;51.214;22.574;2022-11-20T12:37:30;12.40;;;7.80;;
23101;SDS011;11720;51.214;22.574;2022-11-20T12:55:55;8.17;;;4.73;;
23101;SDS011;11720;51.214;22.574;2022-11-20T13:13:52;8.13;;;6.40;;
23101;SDS011;11720;51.214;22.574;2022-11-20T13:19:43;4.70;;;3.60;;
23101;SDS011;11720;51.214;22.574;2022-11-20T13:25:41;8.43;;;5.83;;
23101;SDS011;11720;51.214;22.574;2022-11-20T13:32:26;4.37;;;3.37;;
23101;SDS011;11720;51.214;22.574;2022-11-20T13:35:22;5.67;;;5.20;;
23101;SDS011;11720;51.214;22.574;2022-11-20T13:41:53;6.90;;;4.30;;
23101;SDS011;11720;51.214;22.574;2022-11-20T13:48:23;5.70;;;5.20;;
23101;SDS011;11720;51.214;22.574;2022-11-20T14:05:48;12.83;;;6.37;;
23101;SDS011;11720;51.214;22.574;2022-11-20T14:09:25;3.60;;;3.30;;
23101;SDS011;11720;51.214;22.574;2022-11-20T14:12:42;7.80;;;5.63;;
23101;SDS011;11720;51.214;22.574;2022-11-20T14:18:25;26.53;;;11.47;;
23101;SDS011;11720;51.214;22.574;2022-11-20T14:21:01;12.67;;;7.37;;
23101;SDS011;11720;51.214;22.574;2022-11-20T14:23:42;2.43;;;2.30;;
23101;SDS011;11720;51.214;22.574;2022-11-20T14:26:17;3.33;;;3.03;;
23101;SDS011;11720;51.214;22.574;2022-11-20T14:28:50;5.23;;;4.00;;
23101;SDS011;11720;51.214;22.574;2022-11-20T14:31:43;6.13;;;5.50;;
23101;SDS011;11720;51.214;22.574;2022-11-20T14:34:17;16.57;;;8.67;;
23101;SDS011;11720;51.214;22.574;2022-11-20T14:36:58;10.13;;;6.23;;
23101;SDS011;11720;51.214;22.574;2022-11-20T14:39:50;24.40;;;13.20;;
23101;SDS011;11720;51.214;22.574;2022-11-20T14:42:27;11.60;;;9.10;;
23101;SDS011;11720;51.214;22.574;2022-11-20T14:45:12;11.60;;;6.37;;
23101;SDS011;11720;51.214;22.574;2022-11-20T14:47:44;26.33;;;8.30;;
23101;SDS011;11720;51.214;22.574;2022-11-20T14:50:26;13.47;;;8.73;;
23101;SDS011;11720;51.214;22.574;2022-11-20T14:52:58;18.20;;;10.37;;
23101;SDS011;11720;51.214;22.574;2022-11-20T14:55:42;14.20;;;8.27;;
23101;SDS011;11720;51.214;22.574;2022-11-20T14:58:23;20.87;;;12.70;;
23101;SDS011;11720;51.214;22.574;2022-11-20T15:01:30;7.87;;;6.37;;
23101;SDS011;11720;51.214;22.574;2022-11-20T15:10:19;24.77;;;11.77;;
23101;SDS011;11720;51.214;22.574;2022-11-20T15:13:10;22.33;;;11.43;;
23101;SDS011;11720;51.214;22.574;2022-11-20T15:15:53;14.00;;;9.77;;
23101;SDS011;11720;51.214;22.574;2022-11-20T15:19:21;52.27;;;16.90;;
23101;SDS011;11720;51.214;22.574;2022-11-20T15:21:58;22.03;;;7.17;;
23101;SDS011;11720;51.214;22.574;2022-11-20T15:31:22;26.53;;;14.17;;
23101;SDS011;11720;51.214;22.574;2022-11-20T15:34:11;15.83;;;8.80;;
23101;SDS011;11720;51.214;22.574;2022-11-20T15:36:50;10.73;;;8.80;;
23101;SDS011;11720;51.214;22.574;2022-11-20T15:39:40;14.13;;;8.50;;
23101;SDS011;11720;51.214;22.574;2022-11-20T15:43:05;13.63;;;7.10;;
23101;SDS011;11720;51.214;22.574;2022-11-20T15:46:19;6.33;;;5.60;;
23101;SDS011;11720;51.214;22.574;2022-11-20T15:52:46;10.33;;;6.30;;
23101;SDS011;11720;51.214;22.574;2022-11-20T15:55:23;17.90;;;9.73;;
23101;SDS011;11720;51.214;22.574;2022-11-20T15:57:51;13.73;;;10.20;;
23101;SDS011;11720;51.214;22.574;2022-11-20T16:00:17;14.90;;;5.57;;
23101;SDS011;11720;51.214;22.574;2022-11-20T16:02:43;21.53;;;10.07;;
23101;SDS011;11720;51.214;22.574;2022-11-20T16:05:26;32.73;;;16.13;;
23101;SDS011;11720;51.214;22.574;2022-11-20T16:07:53;28.53;;;16.83;;
23101;SDS011;11720;51.214;22.574;2022-11-20T16:10:27;27.50;;;15.40;;
23101;SDS011;11720;51.214;22.574;2022-11-20T16:13:00;35.40;;;15.00;;
23101;SDS011;11720;51.214;22.574;2022-11-20T16:15:46;28.37;;;14.00;;
23101;SDS011;11720;51.214;22.574;2022-11-20T16:18:17;26.23;;;14.30;;
23101;SDS011;11720;51.214;22.574;2022-11-20T16:20:51;39.70;;;26.33;;
23101;SDS011;11720;51.214;22.574;2022-11-20T16:23:30;47.67;;;25.57;;
23101;SDS011;11720;51.214;22.574;2022-11-20T16:25:58;56.00;;;25.37;;
23101;SDS011;11720;51.214;22.574;2022-11-20T16:28:27;22.93;;;12.00;;
23101;SDS011;11720;51.214;22.574;2022-11-20T16:30:53;22.87;;;12.53;;
23101;SDS011;11720;51.214;22.574;2022-11-20T16:33:19;34.83;;;16.83;;
23101;SDS011;11720;51.214;22.574;2022-11-20T16:35:45;32.77;;;12.93;;
23101;SDS011;11720;51.214;22.574;2022-11-20T16:38:11;30.80;;;13.77;;
23101;SDS011;11720;51.214;22.574;2022-11-20T16:40:40;24.47;;;14.13;;
23101;SDS011;11720;51.214;22.574;2022-11-20T16:43:13;60.17;;;22.40;;
23101;SDS011;11720;51.214;22.574;2022-11-20T16:45:42;24.57;;;11.10;;
23101;SDS011;11720;51.214;22.574;2022-11-20T16:48:11;29.57;;;14.43;;
23101;SDS011;11720;51.214;22.574;2022-11-20T16:50:49;14.23;;;11.13;;
23101;SDS011;11720;51.214;22.574;2022-11-20T16:53:17;48.30;;;14.27;;
23101;SDS011;11720;51.214;22.574;2022-11-20T16:55:53;50.97;;;16.33;;
23101;SDS011;11720;51.214;22.574;2022-11-20T16:58:22;29.50;;;17.47;;
23101;SDS011;11720;51.214;22.574;2022-11-20T17:00:48;24.57;;;16.70;;
23101;SDS011;11720;51.214;22.574;2022-11-20T17:03:14;45.67;;;19.93;;
23101;SDS011;11720;51.214;22.574;2022-11-20T17:05:44;45.63;;;22.07;;
23101;SDS011;11720;51.214;22.574;2022-11-20T17:08:13;51.20;;;21.53;;
23101;SDS011;11720;51.214;22.574;2022-11-20T17:10:39;69.93;;;24.40;;
23101;SDS011;11720;51.214;22.574;2022-11-20T17:13:06;31.50;;;16.90;;
23101;SDS011;11720;51.214;22.574;2022-11-20T17:15:32;29.50;;;20.30;;
23101;SDS011;11720;51.214;22.574;2022-11-20T17:17:59;42.20;;;20.70;;
23101;SDS011;11720;51.214;22.574;2022-11-20T17:20:27;36.23;;;16.23;;
23101;SDS011;11720;51.214;22.574;2022-11-20T17:22:55;31.00;;;16.07;;
23101;SDS011;11720;51.214;22.574;2022-11-20T17:25:20;34.40;;;16.27;;
23101;SDS011;11720;51.214;22.574;2022-11-20T17:27:46;29.50;;;14.53;;
23101;SDS011;11720;51.214;22.574;2022-11-20T17:30:12;20.23;;;12.53;;
23101;SDS011;11720;51.214;22.574;2022-11-20T17:32:38;40.17;;;15.53;;
23101;SDS011;11720;51.214;22.574;2022-11-20T17:35:09;27.93;;;15.47;;
23101;SDS011;11720;51.214;22.574;2022-11-20T17:37:34;34.70;;;18.63;;
23101;SDS011;11720;51.214;22.574;2022-11-20T17:40:00;30.77;;;19.13;;
23101;SDS011;11720;51.214;22.574;2022-11-20T17:42:26;39.23;;;21.53;;
23101;SDS011;11720;51.214;22.574;2022-11-20T17:44:55;30.57;;;18.67;;
23101;SDS011;11720;51.214;22.574;2022-11-20T17:47:22;74.07;;;27.60;;
23101;SDS011;11720;51.214;22.574;2022-11-20T17:49:48;54.17;;;24.70;;
23101;SDS011;11720;51.214;22.574;2022-11-20T17:52:23;54.70;;;26.07;;
23101;SDS011;11720;51.214;22.574;2022-11-20T17:54:49;56.30;;;22.97;;
23101;SDS011;11720;51.214;22.574;2022-11-20T17:57:22;65.40;;;25.17;;
23101;SDS011;11720;51.214;22.574;2022-11-20T18:00:06;66.37;;;26.33;;
23101;SDS011;11720;51.214;22.574;2022-11-20T18:02:34;52.50;;;26.70;;
23101;SDS011;11720;51.214;22.574;2022-11-20T18:05:00;46.90;;;23.33;;
23101;SDS011;11720;51.214;22.574;2022-11-20T18:07:36;42.17;;;25.90;;
23101;SDS011;11720;51.214;22.574;2022-11-20T18:10:16;47.73;;;21.87;;
23101;SDS011;11720;51.214;22.574;2022-11-20T18:12:44;50.83;;;22.63;;
23101;SDS011;11720;51.214;22.574;2022-11-20T18:15:17;41.23;;;22.30;;
23101;SDS011;11720;51.214;22.574;2022-11-20T18:17:51;40.03;;;22.87;;
23101;SDS011;11720;51.214;22.574;2022-11-20T18:20:24;55.10;;;24.73;;
23101;SDS011;11720;51.214;22.574;2022-11-20T18:22:55;38.70;;;23.13;;
23101;SDS011;11720;51.214;22.574;2022-11-20T18:25:30;30.60;;;18.73;;
23101;SDS011;11720;51.214;22.574;2022-11-20T18:27:56;26.40;;;14.97;;
23101;SDS011;11720;51.214;22.574;2022-11-20T18:30:24;31.83;;;14.40;;
23101;SDS011;11720;51.214;22.574;2022-11-20T18:33:03;19.63;;;13.20;;
23101;SDS011;11720;51.214;22.574;2022-11-20T18:35:49;32.50;;;12.43;;
23101;SDS011;11720;51.214;22.574;2022-11-20T18:38:17;32.80;;;15.03;;
23101;SDS011;11720;51.214;22.574;2022-11-20T18:40:44;31.90;;;17.03;;
23101;SDS011;11720;51.214;22.574;2022-11-20T18:43:17;30.70;;;19.63;;
23101;SDS011;11720;51.214;22.574;2022-11-20T18:46:02;35.30;;;20.47;;
23101;SDS011;11720;51.214;22.574;2022-11-20T18:48:31;28.07;;;14.47;;
23101;SDS011;11720;51.214;22.574;2022-11-20T18:51:05;22.03;;;12.10;;
23101;SDS011;11720;51.214;22.574;2022-11-20T18:53:34;22.60;;;13.60;;
23101;SDS011;11720;51.214;22.574;2022-11-20T18:56:12;17.13;;;10.67;;
23101;SDS011;11720;51.214;22.574;2022-11-20T18:58:38;16.93;;;12.67;;
23101;SDS011;11720;51.214;22.574;2022-11-20T19:01:11;24.67;;;12.20;;
23101;SDS011;11720;51.214;22.574;2022-11-20T19:03:37;25.20;;;11.40;;
23101;SDS011;11720;51.214;22.574;2022-11-20T19:06:03;28.80;;;12.50;;
23101;SDS011;11720;51.214;22.574;2022-11-20T19:08:29;17.03;;;10.57;;
23101;SDS011;11720;51.214;22.574;2022-11-20T19:11:04;27.37;;;13.70;;
23101;SDS011;11720;51.214;22.574;2022-11-20T19:13:36;22.50;;;11.60;;
23101;SDS011;11720;51.214;22.574;2022-11-20T19:16:03;23.57;;;13.17;;
23101;SDS011;11720;51.214;22.574;2022-11-20T19:18:30;37.40;;;14.57;;
23101;SDS011;11720;51.214;22.574;2022-11-20T19:20:57;54.40;;;23.37;;
23101;SDS011;11720;51.214;22.574;2022-11-20T19:23:30;21.57;;;14.13;;
23101;SDS011;11720;51.214;22.574;2022-11-20T19:25:57;21.90;;;9.57;;
23101;SDS011;11720;51.214;22.574;2022-11-20T19:28:26;18.63;;;7.93;;
23101;SDS011;11720;51.214;22.574;2022-11-20T19:30:55;12.13;;;7.90;;
23101;SDS011;11720;51.214;22.574;2022-11-20T19:33:21;11.67;;;5.53;;
23101;SDS011;11720;51.214;22.574;2022-11-20T19:35:47;15.83;;;9.60;;
23101;SDS011;11720;51.214;22.574;2022-11-20T19:38:14;17.47;;;7.93;;
23101;SDS011;11720;51.214;22.574;2022-11-20T19:40:41;7.97;;;6.60;;
23101;SDS011;11720;51.214;22.574;2022-11-20T19:43:07;18.60;;;9.50;;
23101;SDS011;11720;51.214;22.574;2022-11-20T19:45:35;18.43;;;8.07;;
23101;SDS011;11720;51.214;22.574;2022-11-20T19:48:01;24.73;;;13.10;;
23101;SDS011;11720;51.214;22.574;2022-11-20T19:50:27;19.03;;;12.17;;
23101;SDS011;11720;51.214;22.574;2022-11-20T19:52:53;19.83;;;8.97;;
23101;SDS011;11720;51.214;22.574;2022-11-20T19:55:19;7.90;;;7.13;;
23101;SDS011;11720;51.214;22.574;2022-11-20T19:57:45;9.07;;;8.17;;
23101;SDS011;11720;51.214;22.574;2022-11-20T20:00:14;8.50;;;5.67;;
23101;SDS011;11720;51.214;22.574;2022-11-20T20:02:40;14.33;;;6.90;;
23101;SDS011;11720;51.214;22.574;2022-11-20T20:05:08;8.13;;;6.33;;
23101;SDS011;11720;51.214;22.574;2022-11-20T20:07:34;17.20;;;7.90;;
23101;SDS011;11720;51.214;22.574;2022-11-20T20:10:03;14.77;;;6.93;;
23101;SDS011;11720;51.214;22.574;2022-11-20T20:12:32;5.33;;;4.93;;
23101;SDS011;11720;51.214;22.574;2022-11-20T20:14:58;15.23;;;6.13;;
23101;SDS011;11720;51.214;22.574;2022-11-20T20:17:24;18.47;;;7.93;;
23101;SDS011;11720;51.214;22.574;2022-11-20T20:19:50;12.47;;;5.27;;
23101;SDS011;11720;51.214;22.574;2022-11-20T20:22:16;6.40;;;4.93;;
23101;SDS011;11720;51.214;22.574;2022-11-20T20:24:41;9.97;;;5.47;;
23101;SDS011;11720;51.214;22.574;2022-11-20T20:27:07;6.07;;;5.53;;
23101;SDS011;11720;51.214;22.574;2022-11-20T20:29:33;15.67;;;6.60;;
23101;SDS011;11720;51.214;22.574;2022-11-20T20:31:58;15.10;;;10.80;;
23101;SDS011;11720;51.214;22.574;2022-11-20T20:34:24;22.33;;;6.83;;
23101;SDS011;11720;51.214;22.574;2022-11-20T20:36:53;14.90;;;7.20;;
23101;SDS011;11720;51.214;22.574;2022-11-20T20:39:20;10.73;;;7.03;;
23101;SDS011;11720;51.214;22.574;2022-11-20T20:41:46;13.87;;;6.90;;
23101;SDS011;11720;51.214;22.574;2022-11-20T20:44:11;26.17;;;9.00;;
23101;SDS011;11720;51.214;22.574;2022-11-20T20:46:56;11.20;;;5.57;;
23101;SDS011;11720;51.214;22.574;2022-11-20T20:49:22;10.37;;;4.67;;
23101;SDS011;11720;51.214;22.574;2022-11-20T20:51:48;5.57;;;4.27;;
23101;SDS011;11720;51.214;22.574;2022-11-20T20:54:14;29.23;;;6.43;;
23101;SDS011;11720;51.214;22.574;2022-11-20T20:56:40;15.73;;;7.00;;
23101;SDS011;11720;51.214;22.574;2022-11-20T20:59:05;15.17;;;8.33;;
23101;SDS011;11720;51.214;22.574;2022-11-20T21:01:32;7.30;;;6.33;;
23101;SDS011;11720;51.214;22.574;2022-11-20T21:03:59;7.13;;;6.17;;
23101;SDS011;11720;51.214;22.574;2022-11-20T21:06:25;10.67;;;5.73;;
23101;SDS011;11720;51.214;22.574;2022-11-20T21:08:51;5.87;;;5.33;;
23101;SDS011;11720;51.214;22.574;2022-11-20T21:11:24;8.03;;;4.83;;
23101;SDS011;11720;51.214;22.574;2022-11-20T21:13:53;12.03;;;6.30;;
23101;SDS011;11720;51.214;22.574;2022-11-20T21:16:37;10.57;;;4.67;;
23101;SDS011;11720;51.214;22.574;2022-11-20T21:19:09;17.43;;;6.00;;
23101;SDS011;11720;51.214;22.574;2022-11-20T21:21:35;4.60;;;4.13;;
23101;SDS011;11720;51.214;22.574;2022-11-20T21:24:22;6.23;;;4.67;;
23101;SDS011;11720;51.214;22.574;2022-11-20T21:26:48;4.80;;;4.40;;
23101;SDS011;11720;51.214;22.574;2022-11-20T21:29:16;9.33;;;5.17;;
23101;SDS011;11720;51.214;22.574;2022-11-20T21:31:42;18.57;;;5.60;;
23101;SDS011;11720;51.214;22.574;2022-11-20T21:34:11;7.67;;;5.47;;